sensor_id;sensor_type;location;lat;lon;timestamp;pressure;altitude;pressure_sealevel;temperature;humidity
21980;BME280;11154;48.558;9.234;2023-01-29T00:01:19;98515.81;;;14.91;33.73
21980;BME280;11154;48.558;9.234;2023-01-29T00:03:20;98521.53;;;14.96;33.70
21980;BME280;11154;48.558;9.234;2023-01-29T00:05:22;98514.03;;;15.00;33.72
21980;BME280;11154;48.558;9.234;2023-01-29T00:07:24;98519.38;;;15.00;33.43
21980;BME280;11154;48.558;9.234;2023-01-29T00:09:26;98529.72;;;14.95;33.40
21980;BME280;11154;48.558;9.234;2023-01-29T00:11:28;98521.53;;;14.96;33.28
21980;BME280;11154;48.558;9.234;2023-01-29T00:13:32;98535.28;;;15.01;33.19
21980;BME280;11154;48.558;9.234;2023-01-29T00:15:34;98517.34;;;14.94;33.17
21980;BME280;11154;48.558;9.234;2023-01-29T00:17:36;98519.53;;;14.90;33.10
21980;BME280;11154;48.558;9.234;2023-01-29T00:19:37;98513.97;;;14.84;33.19
21980;BME280;11154;48.558;9.234;2023-01-29T00:21:39;98509.94;;;14.80;33.27
21980;BME280;11154;48.558;9.234;2023-01-29T00:23:41;98510.59;;;14.82;33.23
21980;BME280;11154;48.558;9.234;2023-01-29T00:25:43;98507.94;;;14.82;33.26
21980;BME280;11154;48.558;9.234;2023-01-29T00:27:45;98506.94;;;14.83;33.24
21980;BME280;11154;48.558;9.234;2023-01-29T00:29:48;98513.28;;;14.82;33.33
21980;BME280;11154;48.558;9.234;2023-01-29T00:32:08;98520.66;;;14.80;33.36
21980;BME280;11154;48.558;9.234;2023-01-29T00:34:10;98522.66;;;14.78;33.27
21980;BME280;11154;48.558;9.234;2023-01-29T00:36:13;98521.19;;;14.83;33.27
21980;BME280;11154;48.558;9.234;2023-01-29T00:38:14;98518.97;;;14.79;33.13
21980;BME280;11154;48.558;9.234;2023-01-29T00:40:16;98522.81;;;14.76;33.19
21980;BME280;11154;48.558;9.234;2023-01-29T00:42:18;98519.50;;;14.82;33.13
21980;BME280;11154;48.558;9.234;2023-01-29T00:44:37;98516.34;;;14.87;33.16
21980;BME280;11154;48.558;9.234;2023-01-29T00:46:57;98517.66;;;14.91;33.12
21980;BME280;11154;48.558;9.234;2023-01-29T00:48:59;98510.97;;;14.95;33.19
21980;BME280;11154;48.558;9.234;2023-01-29T00:51:01;98511.47;;;14.98;32.93
21980;BME280;11154;48.558;9.234;2023-01-29T00:53:03;98517.00;;;14.97;32.91
21980;BME280;11154;48.558;9.234;2023-01-29T00:55:06;98509.31;;;14.94;32.95
21980;BME280;11154;48.558;9.234;2023-01-29T00:57:08;98515.34;;;14.96;32.80
21980;BME280;11154;48.558;9.234;2023-01-29T00:59:10;98519.00;;;14.95;32.86
21980;BME280;11154;48.558;9.234;2023-01-29T01:01:12;98516.19;;;14.96;32.97
21980;BME280;11154;48.558;9.234;2023-01-29T01:03:15;98507.63;;;15.01;32.81
21980;BME280;11154;48.558;9.234;2023-01-29T01:05:17;98518.53;;;15.07;32.74
21980;BME280;11154;48.558;9.234;2023-01-29T01:07:19;98516.03;;;15.13;32.77
21980;BME280;11154;48.558;9.234;2023-01-29T01:09:20;98509.00;;;15.20;32.60
21980;BME280;11154;48.558;9.234;2023-01-29T01:11:39;98519.09;;;15.26;32.62
21980;BME280;11154;48.558;9.234;2023-01-29T01:13:41;98509.38;;;15.33;32.61
21980;BME280;11154;48.558;9.234;2023-01-29T01:15:43;98508.06;;;15.37;32.51
21980;BME280;11154;48.558;9.234;2023-01-29T01:17:45;98511.91;;;15.43;32.41
21980;BME280;11154;48.558;9.234;2023-01-29T01:19:49;98504.03;;;15.41;32.27
21980;BME280;11154;48.558;9.234;2023-01-29T01:21:51;98515.44;;;15.43;32.14
21980;BME280;11154;48.558;9.234;2023-01-29T01:23:53;98509.22;;;15.43;32.19
21980;BME280;11154;48.558;9.234;2023-01-29T01:25:54;98508.22;;;15.44;32.04
21980;BME280;11154;48.558;9.234;2023-01-29T01:27:57;98508.91;;;15.46;32.06
21980;BME280;11154;48.558;9.234;2023-01-29T01:29:59;98500.50;;;15.49;32.00
21980;BME280;11154;48.558;9.234;2023-01-29T01:32:01;98514.41;;;15.52;32.06
21980;BME280;11154;48.558;9.234;2023-01-29T01:34:02;98504.69;;;15.59;32.10
21980;BME280;11154;48.558;9.234;2023-01-29T01:36:06;98506.38;;;15.60;31.87
21980;BME280;11154;48.558;9.234;2023-01-29T01:38:09;98502.50;;;15.63;32.09
21980;BME280;11154;48.558;9.234;2023-01-29T01:40:13;98494.28;;;15.64;31.80
21980;BME280;11154;48.558;9.234;2023-01-29T01:42:17;98496.66;;;15.67;31.85
21980;BME280;11154;48.558;9.234;2023-01-29T01:44:53;98498.97;;;15.70;31.70
21980;BME280;11154;48.558;9.234;2023-01-29T01:46:55;98495.47;;;15.70;31.57
21980;BME280;11154;48.558;9.234;2023-01-29T01:49:02;98492.59;;;15.71;31.63
21980;BME280;11154;48.558;9.234;2023-01-29T01:51:06;98498.66;;;15.73;31.48
21980;BME280;11154;48.558;9.234;2023-01-29T01:53:10;98490.28;;;15.76;31.60
21980;BME280;11154;48.558;9.234;2023-01-29T01:55:16;98496.28;;;15.78;31.48
21980;BME280;11154;48.558;9.234;2023-01-29T01:57:22;98486.25;;;15.80;31.55
21980;BME280;11154;48.558;9.234;2023-01-29T01:59:25;98490.59;;;15.81;31.42
21980;BME280;11154;48.558;9.234;2023-01-29T02:01:26;98489.94;;;15.79;31.38
21980;BME280;11154;48.558;9.234;2023-01-29T02:03:29;98484.56;;;15.79;31.22
21980;BME280;11154;48.558;9.234;2023-01-29T02:05:52;98488.25;;;15.78;31.39
21980;BME280;11154;48.558;9.234;2023-01-29T02:08:17;98492.97;;;15.76;31.37
21980;BME280;11154;48.558;9.234;2023-01-29T02:10:41;98494.78;;;15.76;31.27
21980;BME280;11154;48.558;9.234;2023-01-29T02:12:44;98496.78;;;15.74;31.45
21980;BME280;11154;48.558;9.234;2023-01-29T02:14:46;98497.47;;;15.76;31.37
21980;BME280;11154;48.558;9.234;2023-01-29T02:16:48;98495.66;;;15.76;31.40
21980;BME280;11154;48.558;9.234;2023-01-29T02:18:50;98494.97;;;15.74;31.36
21980;BME280;11154;48.558;9.234;2023-01-29T02:21:06;98496.66;;;15.75;31.34
21980;BME280;11154;48.558;9.234;2023-01-29T02:28:31;98496.81;;;15.66;31.55
21980;BME280;11154;48.558;9.234;2023-01-29T02:30:39;98505.19;;;15.63;31.64
21980;BME280;11154;48.558;9.234;2023-01-29T02:32:48;98504.69;;;15.59;31.80
21980;BME280;11154;48.558;9.234;2023-01-29T02:35:09;98505.19;;;15.55;31.80
21980;BME280;11154;48.558;9.234;2023-01-29T02:37:31;98498.00;;;15.47;31.75
21980;BME280;11154;48.558;9.234;2023-01-29T02:39:38;98498.81;;;15.48;31.84
21980;BME280;11154;48.558;9.234;2023-01-29T02:41:45;98493.63;;;15.46;31.76
21980;BME280;11154;48.558;9.234;2023-01-29T02:43:54;98501.69;;;15.46;31.77
21980;BME280;11154;48.558;9.234;2023-01-29T02:46:02;98504.53;;;15.37;31.89
21980;BME280;11154;48.558;9.234;2023-01-29T02:48:10;98510.56;;;15.31;31.91
21980;BME280;11154;48.558;9.234;2023-01-29T02:50:18;98507.06;;;15.30;31.88
21980;BME280;11154;48.558;9.234;2023-01-29T02:52:25;98511.56;;;15.30;31.89
21980;BME280;11154;48.558;9.234;2023-01-29T02:54:31;98512.25;;;15.32;31.97
21980;BME280;11154;48.558;9.234;2023-01-29T02:56:38;98509.72;;;15.30;31.92
21980;BME280;11154;48.558;9.234;2023-01-29T02:58:47;98511.41;;;15.31;31.95
21980;BME280;11154;48.558;9.234;2023-01-29T03:00:54;98510.72;;;15.29;31.94
21980;BME280;11154;48.558;9.234;2023-01-29T03:03:01;98511.41;;;15.31;31.88
21980;BME280;11154;48.558;9.234;2023-01-29T03:05:09;98505.72;;;15.34;31.82
21980;BME280;11154;48.558;9.234;2023-01-29T03:07:15;98507.22;;;15.37;31.69
21980;BME280;11154;48.558;9.234;2023-01-29T03:09:40;98508.72;;;15.39;31.75
21980;BME280;11154;48.558;9.234;2023-01-29T03:11:47;98505.03;;;15.40;31.76
21980;BME280;11154;48.558;9.234;2023-01-29T03:13:53;98498.66;;;15.33;31.77
21980;BME280;11154;48.558;9.234;2023-01-29T03:16:01;98504.03;;;15.33;31.70
21980;BME280;11154;48.558;9.234;2023-01-29T03:18:08;98492.78;;;15.30;31.66
21980;BME280;11154;48.558;9.234;2023-01-29T03:20:15;98495.34;;;15.31;31.58
21980;BME280;11154;48.558;9.234;2023-01-29T03:22:19;98490.63;;;15.33;31.57
21980;BME280;11154;48.558;9.234;2023-01-29T03:24:29;98490.31;;;15.36;31.39
21980;BME280;11154;48.558;9.234;2023-01-29T03:26:50;98486.44;;;15.39;31.29
21980;BME280;11154;48.558;9.234;2023-01-29T03:29:11;98484.09;;;15.44;31.51
21980;BME280;11154;48.558;9.234;2023-01-29T03:31:32;98486.28;;;15.48;31.17
21980;BME280;11154;48.558;9.234;2023-01-29T03:33:53;98492.31;;;15.50;30.97
21980;BME280;11154;48.558;9.234;2023-01-29T03:36:04;98493.66;;;15.54;30.89
21980;BME280;11154;48.558;9.234;2023-01-29T03:38:09;98497.00;;;15.56;31.10
21980;BME280;11154;48.558;9.234;2023-01-29T03:40:12;98494.81;;;15.60;31.32
21980;BME280;11154;48.558;9.234;2023-01-29T03:42:19;98502.34;;;15.64;31.26
21980;BME280;11154;48.558;9.234;2023-01-29T03:44:29;98499.00;;;15.62;31.09
21980;BME280;11154;48.558;9.234;2023-01-29T03:46:40;98500.69;;;15.63;30.97
21980;BME280;11154;48.558;9.234;2023-01-29T03:48:52;98502.34;;;15.64;30.93
21980;BME280;11154;48.558;9.234;2023-01-29T03:50:59;98503.19;;;15.65;31.03
21980;BME280;11154;48.558;9.234;2023-01-29T03:53:07;98501.19;;;15.67;30.86
21980;BME280;11154;48.558;9.234;2023-01-29T03:55:14;98494.97;;;15.66;30.86
21980;BME280;11154;48.558;9.234;2023-01-29T03:57:22;98500.34;;;15.66;30.60
21980;BME280;11154;48.558;9.234;2023-01-29T03:59:35;98491.59;;;15.64;30.76
21980;BME280;11154;48.558;9.234;2023-01-29T04:01:44;98498.00;;;15.63;30.76
21980;BME280;11154;48.558;9.234;2023-01-29T04:03:51;98498.16;;;15.62;30.88
21980;BME280;11154;48.558;9.234;2023-01-29T04:05:58;98508.38;;;15.58;30.78
21980;BME280;11154;48.558;9.234;2023-01-29T04:08:09;98509.06;;;15.60;30.64
21980;BME280;11154;48.558;9.234;2023-01-29T04:10:15;98502.69;;;15.61;30.66
21980;BME280;11154;48.558;9.234;2023-01-29T04:12:20;98500.84;;;15.62;30.79
21980;BME280;11154;48.558;9.234;2023-01-29T04:14:24;98503.50;;;15.62;30.53
21980;BME280;11154;48.558;9.234;2023-01-29T04:16:30;98499.00;;;15.62;30.57
21980;BME280;11154;48.558;9.234;2023-01-29T04:18:35;98503.38;;;15.63;30.62
21980;BME280;11154;48.558;9.234;2023-01-29T04:20:36;98502.19;;;15.66;30.57
21980;BME280;11154;48.558;9.234;2023-01-29T04:22:39;98507.03;;;15.70;30.54
21980;BME280;11154;48.558;9.234;2023-01-29T04:24:43;98504.84;;;15.74;30.29
21980;BME280;11154;48.558;9.234;2023-01-29T04:26:55;98502.66;;;15.77;30.15
21980;BME280;11154;48.558;9.234;2023-01-29T04:29:09;98504.34;;;15.78;30.44
21980;BME280;11154;48.558;9.234;2023-01-29T04:31:16;98508.38;;;15.74;30.46
21980;BME280;11154;48.558;9.234;2023-01-29T04:33:28;98504.00;;;15.73;30.55
21980;BME280;11154;48.558;9.234;2023-01-29T04:35:46;98509.38;;;15.73;30.65
21980;BME280;11154;48.558;9.234;2023-01-29T04:38:00;98503.19;;;15.73;30.67
21980;BME280;11154;48.558;9.234;2023-01-29T04:40:15;98501.34;;;15.73;30.73
21980;BME280;11154;48.558;9.234;2023-01-29T04:42:24;98497.66;;;15.74;30.67
21980;BME280;11154;48.558;9.234;2023-01-29T04:44:32;98495.66;;;15.76;30.84
21980;BME280;11154;48.558;9.234;2023-01-29T04:46:45;98500.34;;;15.74;30.59
21980;BME280;11154;48.558;9.234;2023-01-29T04:48:58;98501.00;;;15.68;30.59
21980;BME280;11154;48.558;9.234;2023-01-29T04:51:09;98502.50;;;15.63;30.51
21980;BME280;11154;48.558;9.234;2023-01-29T04:53:17;98502.00;;;15.59;30.65
21980;BME280;11154;48.558;9.234;2023-01-29T04:55:29;98502.38;;;15.56;30.63
21980;BME280;11154;48.558;9.234;2023-01-29T04:57:39;98505.03;;;15.56;30.66
21980;BME280;11154;48.558;9.234;2023-01-29T04:59:47;98499.69;;;15.56;30.79
21980;BME280;11154;48.558;9.234;2023-01-29T05:01:51;98505.88;;;15.57;30.62
21980;BME280;11154;48.558;9.234;2023-01-29T05:03:53;98502.00;;;15.59;30.64
21980;BME280;11154;48.558;9.234;2023-01-29T05:05:57;98499.00;;;15.62;30.42
21980;BME280;11154;48.558;9.234;2023-01-29T05:08:03;98504.00;;;15.65;30.31
21980;BME280;11154;48.558;9.234;2023-01-29T05:10:07;98497.47;;;15.68;30.37
21980;BME280;11154;48.558;9.234;2023-01-29T05:12:11;98494.66;;;15.69;30.22
21980;BME280;11154;48.558;9.234;2023-01-29T05:14:16;98501.34;;;15.73;30.18
21980;BME280;11154;48.558;9.234;2023-01-29T05:16:21;98502.16;;;15.74;30.33
21980;BME280;11154;48.558;9.234;2023-01-29T05:18:25;98510.06;;;15.75;30.26
21980;BME280;11154;48.558;9.234;2023-01-29T05:20:30;98501.00;;;15.76;30.12
21980;BME280;11154;48.558;9.234;2023-01-29T05:22:36;98503.00;;;15.74;30.16
21980;BME280;11154;48.558;9.234;2023-01-29T05:24:40;98498.47;;;15.75;29.93
21980;BME280;11154;48.558;9.234;2023-01-29T05:26:43;98495.66;;;15.76;29.85
21980;BME280;11154;48.558;9.234;2023-01-29T05:29:03;98503.19;;;15.73;29.86
21980;BME280;11154;48.558;9.234;2023-01-29T05:31:04;98496.97;;;15.72;29.80
21980;BME280;11154;48.558;9.234;2023-01-29T05:33:12;98499.66;;;15.72;29.69
21980;BME280;11154;48.558;9.234;2023-01-29T05:35:14;98497.66;;;15.74;29.73
21980;BME280;11154;48.558;9.234;2023-01-29T05:37:15;98506.38;;;15.76;29.72
21980;BME280;11154;48.558;9.234;2023-01-29T05:39:17;98496.47;;;15.77;29.91
21980;BME280;11154;48.558;9.234;2023-01-29T05:41:20;98491.78;;;15.79;30.03
21980;BME280;11154;48.558;9.234;2023-01-29T05:43:23;98502.84;;;15.84;30.25
21980;BME280;11154;48.558;9.234;2023-01-29T05:45:25;98497.97;;;15.87;31.21
21980;BME280;11154;48.558;9.234;2023-01-29T05:47:26;98501.34;;;15.81;30.66
21980;BME280;11154;48.558;9.234;2023-01-29T05:49:28;98513.06;;;15.80;30.45
21980;BME280;11154;48.558;9.234;2023-01-29T05:51:30;98505.34;;;15.77;30.13
21980;BME280;11154;48.558;9.234;2023-01-29T05:53:32;98498.66;;;15.73;30.36
21980;BME280;11154;48.558;9.234;2023-01-29T05:55:34;98498.66;;;15.73;30.23
21980;BME280;11154;48.558;9.234;2023-01-29T05:57:38;98500.50;;;15.73;30.39
21980;BME280;11154;48.558;9.234;2023-01-29T05:59:40;98500.00;;;15.69;30.47
21980;BME280;11154;48.558;9.234;2023-01-29T06:01:42;98506.56;;;15.67;30.03
21980;BME280;11154;48.558;9.234;2023-01-29T06:03:44;98502.69;;;15.69;29.79
21980;BME280;11154;48.558;9.234;2023-01-29T06:05:46;98496.16;;;15.72;29.89
21980;BME280;11154;48.558;9.234;2023-01-29T06:07:47;98494.97;;;15.74;29.75
21980;BME280;11154;48.558;9.234;2023-01-29T06:09:49;98481.69;;;15.81;29.42
21980;BME280;11154;48.558;9.234;2023-01-29T06:11:51;98469.78;;;15.83;29.09
21980;BME280;11154;48.558;9.234;2023-01-29T06:13:53;98465.41;;;15.90;28.78
21980;BME280;11154;48.558;9.234;2023-01-29T06:15:55;98461.41;;;15.94;28.57
21980;BME280;11154;48.558;9.234;2023-01-29T06:17:57;98464.41;;;15.99;28.59
21980;BME280;11154;48.558;9.234;2023-01-29T06:19:58;98468.41;;;16.03;28.69
21980;BME280;11154;48.558;9.234;2023-01-29T06:22:00;98465.38;;;16.06;28.84
21980;BME280;11154;48.558;9.234;2023-01-29T06:24:01;98469.56;;;16.08;28.69
21980;BME280;11154;48.558;9.234;2023-01-29T06:26:05;98462.19;;;16.10;28.68
21980;BME280;11154;48.558;9.234;2023-01-29T06:28:07;98468.06;;;16.14;28.76
21980;BME280;11154;48.558;9.234;2023-01-29T06:30:11;98462.31;;;16.17;28.61
21980;BME280;11154;48.558;9.234;2023-01-29T06:32:13;98471.72;;;16.21;28.56
21980;BME280;11154;48.558;9.234;2023-01-29T06:34:14;98473.88;;;16.25;28.58
21980;BME280;11154;48.558;9.234;2023-01-29T06:36:16;98482.78;;;16.26;28.58
21980;BME280;11154;48.558;9.234;2023-01-29T06:38:18;98480.25;;;16.24;28.32
21980;BME280;11154;48.558;9.234;2023-01-29T06:40:19;98479.78;;;16.21;28.46
21980;BME280;11154;48.558;9.234;2023-01-29T06:42:21;98485.47;;;16.18;28.33
21980;BME280;11154;48.558;9.234;2023-01-29T06:44:27;98490.16;;;16.16;28.19
21980;BME280;11154;48.558;9.234;2023-01-29T06:46:30;98489.53;;;16.14;28.36
21980;BME280;11154;48.558;9.234;2023-01-29T06:48:31;98496.53;;;16.15;28.18
21980;BME280;11154;48.558;9.234;2023-01-29T06:50:33;98486.84;;;16.14;28.53
21980;BME280;11154;48.558;9.234;2023-01-29T06:52:34;98494.91;;;16.14;28.32
21980;BME280;11154;48.558;9.234;2023-01-29T06:54:36;98485.66;;;16.16;28.29
21980;BME280;11154;48.558;9.234;2023-01-29T06:56:38;98488.16;;;16.18;28.34
21980;BME280;11154;48.558;9.234;2023-01-29T06:58:39;98493.34;;;16.19;28.02
21980;BME280;11154;48.558;9.234;2023-01-29T07:00:42;98505.75;;;16.20;28.15
21980;BME280;11154;48.558;9.234;2023-01-29T07:02:47;98508.63;;;16.19;28.32
21980;BME280;11154;48.558;9.234;2023-01-29T07:04:49;98515.69;;;16.20;28.39
21980;BME280;11154;48.558;9.234;2023-01-29T07:06:51;98507.25;;;16.23;28.34
21980;BME280;11154;48.558;9.234;2023-01-29T07:08:52;98508.75;;;16.25;28.21
21980;BME280;11154;48.558;9.234;2023-01-29T07:10:57;98505.06;;;16.26;28.37
21980;BME280;11154;48.558;9.234;2023-01-29T07:12:59;98502.38;;;16.26;28.76
21980;BME280;11154;48.558;9.234;2023-01-29T07:15:01;98507.59;;;16.28;28.63
21980;BME280;11154;48.558;9.234;2023-01-29T07:17:03;98517.34;;;16.29;28.69
21980;BME280;11154;48.558;9.234;2023-01-29T07:19:06;98512.97;;;16.28;28.50
21980;BME280;11154;48.558;9.234;2023-01-29T07:21:07;98516.50;;;16.28;28.33
21980;BME280;11154;48.558;9.234;2023-01-29T07:23:11;98522.56;;;16.30;28.12
21980;BME280;11154;48.558;9.234;2023-01-29T07:25:13;98522.56;;;16.30;27.82
21980;BME280;11154;48.558;9.234;2023-01-29T07:27:14;98517.19;;;16.30;27.69
21980;BME280;11154;48.558;9.234;2023-01-29T07:29:16;98515.16;;;16.32;27.68
21980;BME280;11154;48.558;9.234;2023-01-29T07:31:17;98526.38;;;16.36;27.72
21980;BME280;11154;48.558;9.234;2023-01-29T07:33:19;98520.69;;;16.39;27.40
21980;BME280;11154;48.558;9.234;2023-01-29T07:35:22;98526.53;;;16.42;27.24
21980;BME280;11154;48.558;9.234;2023-01-29T07:37:24;98520.63;;;16.47;27.26
21980;BME280;11154;48.558;9.234;2023-01-29T07:39:25;98518.78;;;16.55;27.07
21980;BME280;11154;48.558;9.234;2023-01-29T07:41:27;98523.59;;;16.60;27.05
21980;BME280;11154;48.558;9.234;2023-01-29T07:43:29;98518.56;;;16.64;26.99
21980;BME280;11154;48.558;9.234;2023-01-29T07:45:32;98515.03;;;16.64;26.80
21980;BME280;11154;48.558;9.234;2023-01-29T07:47:34;98517.88;;;16.63;26.87
21980;BME280;11154;48.558;9.234;2023-01-29T07:49:36;98531.84;;;16.58;26.96
21980;BME280;11154;48.558;9.234;2023-01-29T07:51:39;98528.66;;;16.55;26.96
21980;BME280;11154;48.558;9.234;2023-01-29T07:53:40;98531.03;;;16.50;26.85
21980;BME280;11154;48.558;9.234;2023-01-29T07:55:43;98538.59;;;16.46;26.71
21980;BME280;11154;48.558;9.234;2023-01-29T07:57:45;98536.44;;;16.42;26.80
21980;BME280;11154;48.558;9.234;2023-01-29T07:59:47;98548.16;;;16.49;26.86
21980;BME280;11154;48.558;9.234;2023-01-29T08:01:49;98543.78;;;16.48;27.23
21980;BME280;11154;48.558;9.234;2023-01-29T08:03:50;98548.53;;;16.30;27.32
21980;BME280;11154;48.558;9.234;2023-01-29T08:05:52;98543.66;;;16.25;27.10
21980;BME280;11154;48.558;9.234;2023-01-29T08:07:55;98543.69;;;16.17;27.13
21980;BME280;11154;48.558;9.234;2023-01-29T08:09:56;98554.63;;;16.08;27.42
21980;BME280;11154;48.558;9.234;2023-01-29T08:11:58;98546.22;;;16.03;27.41
21980;BME280;11154;48.558;9.234;2023-01-29T08:14:00;98553.94;;;15.98;27.51
21980;BME280;11154;48.558;9.234;2023-01-29T08:16:02;98544.41;;;15.88;27.45
21980;BME280;11154;48.558;9.234;2023-01-29T08:18:05;98549.44;;;15.59;27.94
21980;BME280;11154;48.558;9.234;2023-01-29T08:20:08;98551.59;;;15.23;28.40
21980;BME280;11154;48.558;9.234;2023-01-29T08:22:10;98547.13;;;14.91;29.16
21980;BME280;11154;48.558;9.234;2023-01-29T08:24:12;98555.09;;;14.67;29.90
21980;BME280;11154;48.558;9.234;2023-01-29T08:26:14;98553.63;;;14.39;30.47
21980;BME280;11154;48.558;9.234;2023-01-29T08:28:16;98546.75;;;14.11;30.43
21980;BME280;11154;48.558;9.234;2023-01-29T08:30:17;98542.72;;;14.07;30.96
21980;BME280;11154;48.558;9.234;2023-01-29T08:32:19;98538.00;;;14.01;30.87
21980;BME280;11154;48.558;9.234;2023-01-29T08:34:21;98540.31;;;13.96;31.20
21980;BME280;11154;48.558;9.234;2023-01-29T08:36:22;98536.75;;;13.88;31.07
21980;BME280;11154;48.558;9.234;2023-01-29T08:38:24;98547.53;;;14.04;31.14
21980;BME280;11154;48.558;9.234;2023-01-29T08:40:29;98543.69;;;13.98;30.97
21980;BME280;11154;48.558;9.234;2023-01-29T08:42:31;98550.66;;;13.91;31.03
21980;BME280;11154;48.558;9.234;2023-01-29T08:44:33;98547.53;;;14.04;31.04
21980;BME280;11154;48.558;9.234;2023-01-29T08:46:35;98555.66;;;14.12;30.69
21980;BME280;11154;48.558;9.234;2023-01-29T08:48:37;98551.19;;;14.20;30.55
21980;BME280;11154;48.558;9.234;2023-01-29T08:50:38;98555.59;;;14.29;30.80
21980;BME280;11154;48.558;9.234;2023-01-29T08:52:40;98549.25;;;14.38;30.59
21980;BME280;11154;48.558;9.234;2023-01-29T08:54:42;98562.84;;;14.44;30.87
21980;BME280;11154;48.558;9.234;2023-01-29T08:56:44;98558.69;;;14.50;30.57
21980;BME280;11154;48.558;9.234;2023-01-29T08:58:46;98552.69;;;14.56;30.52
21980;BME280;11154;48.558;9.234;2023-01-29T09:00:48;98556.72;;;14.60;30.46
21980;BME280;11154;48.558;9.234;2023-01-29T09:02:49;98566.56;;;14.51;29.97
21980;BME280;11154;48.558;9.234;2023-01-29T09:04:51;98566.59;;;14.26;30.35
21980;BME280;11154;48.558;9.234;2023-01-29T09:06:52;98565.50;;;14.11;30.63
21980;BME280;11154;48.558;9.234;2023-01-29T09:08:54;98569.78;;;14.04;30.61
21980;BME280;11154;48.558;9.234;2023-01-29T09:10:57;98570.66;;;13.87;30.55
21980;BME280;11154;48.558;9.234;2023-01-29T09:13:00;98574.91;;;13.72;31.18
21980;BME280;11154;48.558;9.234;2023-01-29T09:15:02;98580.72;;;13.51;31.82
21980;BME280;11154;48.558;9.234;2023-01-29T09:17:04;98581.25;;;13.37;32.20
21980;BME280;11154;48.558;9.234;2023-01-29T09:19:06;98590.47;;;13.25;32.37
21980;BME280;11154;48.558;9.234;2023-01-29T09:21:07;98580.31;;;13.11;32.65
21980;BME280;11154;48.558;9.234;2023-01-29T09:23:10;98591.22;;;13.00;32.29
21980;BME280;11154;48.558;9.234;2023-01-29T09:25:12;98588.78;;;12.89;32.76
21980;BME280;11154;48.558;9.234;2023-01-29T09:27:13;98594.13;;;12.80;33.21
21980;BME280;11154;48.558;9.234;2023-01-29T09:29:16;98589.66;;;12.71;33.27
21980;BME280;11154;48.558;9.234;2023-01-29T09:31:18;98594.78;;;12.64;33.87
21980;BME280;11154;48.558;9.234;2023-01-29T09:33:20;98595.06;;;12.61;33.19
21980;BME280;11154;48.558;9.234;2023-01-29T09:35:23;98598.59;;;12.52;32.78
21980;BME280;11154;48.558;9.234;2023-01-29T09:37:25;98590.91;;;12.49;32.63
21980;BME280;11154;48.558;9.234;2023-01-29T09:39:27;98589.53;;;12.45;32.83
21980;BME280;11154;48.558;9.234;2023-01-29T09:41:39;98579.84;;;12.44;33.52
21980;BME280;11154;48.558;9.234;2023-01-29T09:43:47;98585.97;;;12.54;33.92
21980;BME280;11154;48.558;9.234;2023-01-29T09:45:54;98590.47;;;12.81;34.09
21980;BME280;11154;48.558;9.234;2023-01-29T09:47:58;98588.19;;;12.86;32.59
21980;BME280;11154;48.558;9.234;2023-01-29T09:50:05;98584.53;;;12.87;32.39
21980;BME280;11154;48.558;9.234;2023-01-29T09:52:14;98586.47;;;12.94;32.54
21980;BME280;11154;48.558;9.234;2023-01-29T09:54:18;98579.78;;;12.90;32.68
21980;BME280;11154;48.558;9.234;2023-01-29T09:56:23;98591.84;;;12.85;33.35
21980;BME280;11154;48.558;9.234;2023-01-29T09:58:30;98582.31;;;12.82;33.51
21980;BME280;11154;48.558;9.234;2023-01-29T10:00:38;98587.38;;;12.76;33.52
21980;BME280;11154;48.558;9.234;2023-01-29T10:03:04;98579.84;;;12.71;33.63
21980;BME280;11154;48.558;9.234;2023-01-29T10:05:36;98574.81;;;12.68;33.54
21980;BME280;11154;48.558;9.234;2023-01-29T10:08:07;98577.91;;;12.64;33.57
21980;BME280;11154;48.558;9.234;2023-01-29T10:10:22;98575.41;;;12.62;34.07
21980;BME280;11154;48.558;9.234;2023-01-29T10:12:50;98567.38;;;12.62;34.02
21980;BME280;11154;48.558;9.234;2023-01-29T10:14:59;98565.72;;;12.61;33.81
21980;BME280;11154;48.558;9.234;2023-01-29T10:17:15;98554.06;;;12.62;34.04
21980;BME280;11154;48.558;9.234;2023-01-29T10:19:43;98545.34;;;12.60;34.34
21980;BME280;11154;48.558;9.234;2023-01-29T10:22:03;98541.00;;;12.59;34.84
21980;BME280;11154;48.558;9.234;2023-01-29T10:24:18;98537.72;;;12.65;34.36
21980;BME280;11154;48.558;9.234;2023-01-29T10:26:23;98529.88;;;12.64;33.52
21980;BME280;11154;48.558;9.234;2023-01-29T10:28:30;98527.53;;;12.61;33.24
21980;BME280;11154;48.558;9.234;2023-01-29T10:30:36;98529.34;;;12.60;33.36
21980;BME280;11154;48.558;9.234;2023-01-29T10:32:39;98520.66;;;12.58;33.73
21980;BME280;11154;48.558;9.234;2023-01-29T10:34:45;98501.66;;;12.61;33.27
21980;BME280;11154;48.558;9.234;2023-01-29T10:36:49;98509.66;;;12.61;33.12
21980;BME280;11154;48.558;9.234;2023-01-29T10:38:51;98508.53;;;12.64;33.77
21980;BME280;11154;48.558;9.234;2023-01-29T10:41:00;98506.41;;;12.67;33.18
21980;BME280;11154;48.558;9.234;2023-01-29T10:43:09;98515.50;;;12.74;33.29
21980;BME280;11154;48.558;9.234;2023-01-29T10:45:21;98516.84;;;13.05;32.91
21980;BME280;11154;48.558;9.234;2023-01-29T10:47:43;98524.16;;;13.20;32.92
21980;BME280;11154;48.558;9.234;2023-01-29T10:50:03;98514.69;;;13.43;32.30
21980;BME280;11154;48.558;9.234;2023-01-29T10:52:23;98523.06;;;13.48;34.06
21980;BME280;11154;48.558;9.234;2023-01-29T10:54:36;98516.38;;;13.44;33.07
21980;BME280;11154;48.558;9.234;2023-01-29T10:56:53;98524.47;;;13.35;32.40
21980;BME280;11154;48.558;9.234;2023-01-29T10:59:02;98528.59;;;13.29;32.61
21980;BME280;11154;48.558;9.234;2023-01-29T11:01:05;98519.06;;;13.27;33.09
21980;BME280;11154;48.558;9.234;2023-01-29T11:03:14;98516.53;;;13.25;33.14
21980;BME280;11154;48.558;9.234;2023-01-29T11:05:23;98514.00;;;13.24;33.24
21980;BME280;11154;48.558;9.234;2023-01-29T11:07:26;98506.97;;;13.23;33.27
21980;BME280;11154;48.558;9.234;2023-01-29T11:09:34;98504.31;;;13.23;33.44
21980;BME280;11154;48.558;9.234;2023-01-29T11:11:40;98497.97;;;13.24;33.02